createdAt,value
2022-08-30T00:01:28.354Z,100.00
2022-08-30T00:03:58.360Z,100.00
2022-08-30T00:06:28.489Z,100.00
2022-08-30T00:08:56.320Z,100.00
2022-08-30T00:11:28.325Z,100.00
2022-08-30T00:13:56.983Z,100.00
2022-08-30T00:16:26.380Z,100.00
2022-08-30T00:18:54.069Z,100.00
2022-08-30T00:21:21.373Z,100.00
2022-08-30T00:23:48.186Z,100.00
2022-08-30T00:26:15.106Z,100.00
2022-08-30T00:28:41.918Z,100.00
2022-08-30T00:31:08.912Z,100.00
2022-08-30T00:33:35.942Z,100.00
2022-08-30T00:36:03.161Z,100.00
2022-08-30T00:38:30.083Z,100.00
2022-08-30T00:40:57.352Z,100.00
2022-08-30T00:43:29.343Z,100.00
2022-08-30T00:45:57.459Z,100.00
2022-08-30T00:48:24.478Z,100.00
2022-08-30T00:51:13.026Z,100.00
2022-08-30T00:53:47.302Z,100.00
2022-08-30T00:56:14.599Z,100.00
2022-08-30T00:58:49.203Z,100.00
2022-08-30T01:01:16.670Z,100.00
2022-08-30T01:03:44.744Z,100.00
2022-08-30T01:06:15.572Z,100.00
2022-08-30T01:08:44.413Z,100.00
2022-08-30T01:11:13.725Z,100.00
2022-08-30T01:13:41.037Z,100.00
2022-08-30T01:16:08.189Z,100.00
2022-08-30T01:18:38.007Z,100.00
2022-08-30T01:21:36.885Z,100.00
2022-08-30T01:24:05.733Z,100.00
2022-08-30T01:26:34.747Z,100.00
2022-08-30T01:29:07.201Z,100.00
2022-08-30T01:31:36.907Z,100.00
2022-08-30T01:34:07.519Z,100.00
2022-08-30T01:36:44.660Z,100.00
2022-08-30T01:39:17.805Z,100.00
2022-08-30T01:41:45.491Z,100.00
2022-08-30T01:44:13.840Z,100.00
2022-08-30T01:46:46.568Z,100.00
2022-08-30T01:49:23.129Z,100.00
2022-08-30T01:52:01.148Z,100.00
2022-08-30T01:54:36.624Z,100.00
2022-08-30T01:57:07.957Z,100.00
2022-08-30T01:59:35.026Z,100.00
2022-08-30T02:02:02.592Z,100.00
2022-08-30T02:04:29.467Z,100.00
2022-08-30T02:06:56.315Z,100.00
2022-08-30T02:09:23.215Z,100.00
2022-08-30T02:11:50.341Z,100.00
2022-08-30T02:14:17.179Z,100.00
2022-08-30T02:16:48.531Z,100.00
2022-08-30T02:19:15.740Z,100.00
2022-08-30T02:21:42.535Z,100.00
2022-08-30T02:24:09.410Z,100.00
2022-08-30T02:26:36.621Z,100.00
2022-08-30T02:29:05.895Z,100.00
2022-08-30T02:31:33.282Z,100.00
2022-08-30T02:34:00.416Z,100.00
2022-08-30T02:36:27.886Z,100.00
2022-08-30T02:38:54.685Z,100.00
2022-08-30T02:41:23.694Z,100.00
2022-08-30T02:43:51.592Z,100.00
2022-08-30T02:46:18.947Z,100.00
2022-08-30T02:48:45.883Z,100.00
2022-08-30T02:51:14.396Z,100.00
2022-08-30T02:53:43.861Z,100.00
2022-08-30T02:56:13.418Z,100.00
2022-08-30T02:58:42.504Z,100.00
2022-08-30T03:01:12.320Z,100.00
2022-08-30T03:03:41.172Z,100.00
2022-08-30T03:06:08.295Z,100.00
2022-08-30T03:08:35.129Z,100.00
2022-08-30T03:11:02.735Z,100.00
2022-08-30T03:13:29.758Z,100.00
2022-08-30T03:15:57.068Z,100.00
2022-08-30T03:18:24.398Z,100.00
2022-08-30T03:20:54.613Z,100.00
2022-08-30T03:23:23.693Z,100.00
2022-08-30T03:25:51.007Z,100.00
2022-08-30T03:28:17.855Z,100.00
2022-08-30T03:30:44.687Z,100.00
2022-08-30T03:33:11.598Z,100.00
2022-08-30T03:35:38.472Z,100.00
2022-08-30T03:38:06.323Z,100.00
2022-08-30T03:40:33.327Z,100.00
2022-08-30T03:43:00.677Z,100.00
2022-08-30T03:45:27.687Z,100.00
2022-08-30T03:47:54.528Z,100.00
2022-08-30T03:50:21.349Z,100.00
2022-08-30T03:52:48.919Z,100.00
2022-08-30T03:55:15.772Z,100.00
2022-08-30T03:57:43.893Z,100.00
2022-08-30T04:00:12.769Z,100.00
2022-08-30T04:02:40.605Z,100.00
2022-08-30T04:05:09.497Z,100.00
2022-08-30T04:07:36.680Z,100.00
2022-08-30T04:10:07.000Z,100.00
2022-08-30T04:12:34.049Z,100.00
2022-08-30T04:15:00.853Z,100.00
2022-08-30T04:17:27.974Z,100.00
2022-08-30T04:19:54.853Z,100.00
2022-08-30T04:22:21.997Z,100.00
2022-08-30T04:24:48.860Z,100.00
2022-08-30T04:27:15.683Z,100.00
2022-08-30T04:29:42.529Z,100.00
2022-08-30T04:32:09.423Z,100.00
2022-08-30T04:34:36.364Z,100.00
2022-08-30T04:37:03.202Z,100.00
2022-08-30T04:39:31.073Z,100.00
2022-08-30T04:41:58.745Z,100.00
2022-08-30T04:44:27.414Z,100.00
2022-08-30T04:46:54.686Z,100.00
2022-08-30T04:49:22.859Z,100.00
2022-08-30T04:51:49.758Z,100.00
2022-08-30T04:54:17.256Z,100.00
2022-08-30T04:56:44.178Z,100.00
2022-08-30T04:59:11.021Z,100.00
2022-08-30T05:01:44.725Z,100.00
2022-08-30T05:04:13.802Z,100.00
2022-08-30T05:06:40.774Z,100.00
2022-08-30T05:09:07.585Z,100.00
2022-08-30T05:11:34.504Z,100.00
2022-08-30T05:14:01.366Z,100.00
2022-08-30T05:16:28.273Z,100.00
2022-08-30T05:18:55.147Z,100.00
2022-08-30T05:21:26.418Z,100.00
2022-08-30T05:23:59.954Z,100.00
2022-08-30T05:26:31.496Z,100.00
2022-08-30T05:28:58.899Z,100.00
2022-08-30T05:31:33.235Z,100.00
2022-08-30T05:34:00.606Z,100.00
2022-08-30T05:36:30.667Z,100.00
2022-08-30T05:38:58.119Z,100.00
2022-08-30T05:41:27.175Z,100.00
2022-08-30T05:44:00.312Z,100.00
2022-08-30T05:49:07.139Z,100.00
2022-08-30T05:51:40.214Z,100.00
2022-08-30T05:54:11.837Z,100.00
2022-08-30T05:56:41.460Z,100.00
2022-08-30T05:59:09.158Z,100.00
2022-08-30T06:01:39.967Z,100.00
2022-08-30T06:04:09.743Z,100.00
2022-08-30T06:06:39.680Z,100.00
2022-08-30T06:09:09.225Z,100.00
2022-08-30T06:11:36.784Z,100.00
2022-08-30T06:14:05.133Z,100.00
2022-08-30T06:16:32.087Z,100.00
2022-08-30T06:19:00.323Z,100.00
2022-08-30T06:21:31.389Z,100.00
2022-08-30T06:23:59.236Z,100.00
2022-08-30T06:26:28.841Z,100.00
2022-08-30T06:28:57.252Z,100.00
2022-08-30T06:31:26.045Z,100.00
2022-08-30T06:33:53.597Z,100.00
2022-08-30T06:36:23.613Z,100.00
2022-08-30T06:38:55.772Z,100.00
2022-08-30T06:41:30.736Z,100.00
2022-08-30T06:44:00.194Z,100.00
2022-08-30T06:46:32.440Z,100.00
2022-08-30T06:49:00.713Z,100.00
2022-08-30T06:51:35.481Z,100.00
2022-08-30T06:54:04.661Z,100.00
2022-08-30T06:56:31.670Z,100.00
2022-08-30T06:58:58.703Z,100.00
2022-08-30T07:01:28.860Z,100.00
2022-08-30T07:03:58.125Z,100.00
2022-08-30T07:06:26.114Z,100.00
2022-08-30T07:08:56.517Z,100.00
2022-08-30T07:11:35.838Z,100.00
2022-08-30T07:14:04.218Z,100.00
2022-08-30T07:16:31.133Z,100.00
2022-08-30T07:18:58.879Z,100.00
2022-08-30T07:21:34.721Z,100.00
2022-08-30T07:24:02.283Z,100.00
2022-08-30T07:26:35.110Z,100.00
2022-08-30T07:29:02.296Z,100.00
2022-08-30T07:31:29.945Z,100.00
2022-08-30T07:33:57.120Z,100.00
2022-08-30T07:36:24.730Z,100.00
2022-08-30T07:38:53.456Z,100.00
2022-08-30T07:41:39.154Z,100.00
2022-08-30T07:44:08.452Z,100.00
2022-08-30T07:46:36.746Z,100.00
2022-08-30T07:49:04.611Z,100.00
2022-08-30T07:51:32.552Z,100.00
2022-08-30T07:54:00.507Z,100.00
2022-08-30T07:56:27.841Z,100.00
2022-08-30T07:58:55.310Z,100.00
2022-08-30T08:01:23.597Z,100.00
2022-08-30T08:03:51.058Z,100.00
2022-08-30T08:06:21.161Z,100.00
2022-08-30T08:08:48.429Z,100.00
2022-08-30T08:11:30.390Z,100.00
2022-08-30T08:14:00.049Z,100.00
2022-08-30T08:16:29.938Z,100.00
2022-08-30T08:18:57.778Z,100.00
2022-08-30T08:21:26.260Z,100.00
2022-08-30T08:23:53.792Z,100.00
2022-08-30T08:26:21.404Z,100.00
2022-08-30T08:28:48.345Z,100.00
2022-08-30T08:31:21.590Z,100.00
2022-08-30T08:33:56.223Z,100.00
2022-08-30T08:36:23.195Z,100.00
2022-08-30T08:38:50.124Z,100.00
2022-08-30T08:42:10.116Z,100.00
2022-08-30T08:44:56.548Z,100.00
2022-08-30T08:47:48.996Z,100.00
2022-08-30T08:50:20.871Z,100.00
2022-08-30T08:53:50.432Z,100.00
2022-08-30T08:56:19.485Z,100.00
2022-08-30T08:58:51.925Z,100.00
2022-08-30T09:01:23.827Z,100.00
2022-08-30T09:03:51.784Z,100.00
2022-08-30T09:07:01.340Z,100.00
2022-08-30T09:09:35.656Z,100.00
2022-08-30T09:12:05.191Z,100.00
2022-08-30T09:14:46.159Z,100.00
2022-08-30T09:17:20.378Z,100.00
2022-08-30T09:19:53.532Z,100.00
2022-08-30T09:22:36.130Z,100.00
2022-08-30T09:25:06.565Z,100.00
2022-08-30T09:27:37.550Z,100.00
2022-08-30T09:30:21.425Z,100.00
2022-08-30T09:32:54.594Z,100.00
2022-08-30T09:35:37.588Z,98.76
2022-08-30T09:38:17.957Z,96.17
2022-08-30T09:41:02.343Z,94.55
2022-08-30T09:43:34.333Z,94.11
2022-08-30T09:46:01.468Z,93.21
2022-08-30T09:48:43.898Z,92.49
2022-08-30T09:51:10.924Z,91.94
2022-08-30T09:54:16.586Z,88.72
2022-08-30T09:56:53.359Z,86.09
2022-08-30T10:00:21.534Z,85.56
2022-08-30T10:03:35.648Z,83.43
2022-08-30T10:06:15.308Z,83.09
2022-08-30T10:08:57.656Z,83.76
2022-08-30T10:11:49.181Z,82.40
2022-08-30T10:14:34.521Z,80.87
2022-08-30T10:17:45.893Z,80.19
2022-08-30T10:20:38.812Z,80.46
2022-08-30T10:23:16.859Z,78.79
2022-08-30T10:26:19.461Z,77.75
2022-08-30T10:28:52.394Z,77.27
2022-08-30T10:31:55.334Z,75.06
2022-08-30T10:34:57.499Z,74.54
2022-08-30T10:37:29.838Z,74.44
2022-08-30T10:40:25.357Z,72.28
2022-08-30T10:42:54.168Z,69.09
2022-08-30T10:45:22.203Z,69.67
2022-08-30T10:48:19.347Z,69.31
2022-08-30T10:50:53.586Z,69.24
2022-08-30T10:54:01.969Z,68.42
2022-08-30T10:56:29.796Z,69.05
2022-08-30T10:58:59.114Z,65.54
2022-08-30T11:02:12.995Z,66.76
2022-08-30T11:05:06.712Z,63.88
2022-08-30T11:08:02.369Z,64.87
2022-08-30T11:11:13.087Z,63.61
2022-08-30T11:13:41.603Z,62.65
2022-08-30T11:16:15.777Z,62.28
2022-08-30T11:18:51.033Z,62.67
2022-08-30T11:21:24.706Z,57.73
2022-08-30T11:24:11.466Z,58.98
2022-08-30T11:26:50.801Z,58.22
2022-08-30T11:29:26.953Z,57.55
2022-08-30T11:31:56.648Z,56.58
2022-08-30T11:34:45.342Z,54.12
2022-08-30T11:37:31.162Z,56.60
2022-08-30T11:40:03.838Z,55.00
2022-08-30T11:42:32.492Z,54.83
2022-08-30T11:45:25.102Z,53.61
2022-08-30T11:48:07.302Z,52.52
2022-08-30T11:50:48.446Z,52.32
2022-08-30T11:53:46.776Z,50.93
2022-08-30T11:56:21.307Z,49.80
2022-08-30T11:59:00.117Z,50.56
2022-08-30T12:01:50.318Z,50.96
2022-08-30T12:04:37.769Z,50.51
2022-08-30T12:07:07.934Z,50.65
2022-08-30T12:09:35.210Z,48.81
2022-08-30T12:12:04.841Z,49.90
2022-08-30T12:14:48.648Z,49.87
2022-08-30T12:18:15.471Z,49.65
2022-08-30T12:20:48.839Z,49.28
2022-08-30T12:23:30.230Z,49.00
2022-08-30T12:26:51.478Z,48.85
2022-08-30T12:29:21.282Z,48.44
2022-08-30T12:31:54.173Z,46.36
2022-08-30T12:34:50.284Z,44.43
2022-08-30T12:37:25.940Z,46.73
2022-08-30T12:40:21.023Z,47.28
2022-08-30T12:43:06.046Z,47.53
2022-08-30T12:45:42.956Z,46.92
2022-08-30T12:48:14.614Z,47.27
2022-08-30T12:50:59.198Z,47.76
2022-08-30T12:53:42.786Z,47.68
2022-08-30T12:56:21.261Z,46.90
2022-08-30T12:59:02.053Z,47.95
2022-08-30T13:01:36.232Z,47.91
2022-08-30T13:04:22.294Z,48.02
2022-08-30T13:06:55.978Z,47.66
2022-08-30T13:09:32.222Z,48.84
2022-08-30T13:12:06.969Z,49.34
2022-08-30T13:14:37.363Z,49.26
2022-08-30T13:17:18.905Z,49.33
2022-08-30T13:20:24.523Z,49.45
2022-08-30T13:23:10.676Z,49.80
2022-08-30T13:25:39.645Z,47.72
2022-08-30T13:28:07.950Z,49.61
2022-08-30T13:30:35.828Z,48.69
2022-08-30T13:33:02.924Z,48.43
2022-08-30T13:35:31.057Z,48.05
2022-08-30T13:38:00.099Z,46.48
2022-08-30T13:40:27.069Z,46.40
2022-08-30T13:42:54.027Z,47.17
2022-08-30T13:48:07.948Z,44.62
2022-08-30T13:50:34.875Z,44.18
2022-08-30T13:53:01.706Z,43.29
2022-08-30T13:55:29.054Z,42.58
2022-08-30T13:57:57.252Z,42.67
2022-08-30T14:00:25.826Z,43.74
2022-08-30T14:02:55.953Z,44.52
2022-08-30T14:05:48.386Z,45.64
2022-08-30T14:11:11.741Z,44.88
2022-08-30T14:16:31.283Z,45.83
2022-08-30T14:19:00.078Z,47.01
2022-08-30T14:21:27.705Z,46.62
2022-08-30T14:23:56.864Z,46.81
2022-08-30T14:26:45.203Z,47.31
2022-08-30T14:29:16.449Z,47.68
2022-08-30T14:31:44.557Z,47.47
2022-08-30T14:34:12.169Z,47.64
2022-08-30T14:36:42.264Z,47.93
2022-08-30T14:39:15.035Z,48.29
2022-08-30T14:41:47.406Z,48.41
2022-08-30T14:44:16.309Z,47.88
2022-08-30T14:46:44.099Z,47.66
2022-08-30T14:49:12.589Z,47.73
2022-08-30T14:51:40.560Z,47.83
2022-08-30T14:54:07.739Z,48.09
2022-08-30T14:56:38.090Z,48.74
2022-08-30T14:59:05.244Z,48.26
2022-08-30T15:01:33.934Z,47.73
2022-08-30T15:04:07.290Z,47.43
2022-08-30T15:06:36.367Z,47.65
2022-08-30T15:09:04.359Z,47.68
2022-08-30T15:11:31.417Z,49.11
2022-08-30T15:14:00.275Z,48.96
2022-08-30T15:16:33.010Z,48.59
2022-08-30T15:19:00.331Z,48.69
2022-08-30T15:21:35.270Z,48.63
2022-08-30T15:24:03.788Z,45.56
2022-08-30T15:26:30.992Z,44.34
2022-08-30T15:28:57.889Z,42.97
2022-08-30T15:31:28.447Z,44.80
2022-08-30T15:33:55.530Z,45.94
2022-08-30T15:36:25.260Z,46.35
2022-08-30T15:38:55.776Z,46.39
2022-08-30T15:41:23.826Z,46.74
2022-08-30T15:43:52.763Z,46.17
2022-08-30T15:46:32.094Z,46.22
2022-08-30T15:49:10.513Z,46.33
2022-08-30T15:51:41.576Z,45.75
2022-08-30T15:54:11.664Z,46.05
2022-08-30T15:56:39.348Z,47.01
2022-08-30T15:59:07.082Z,48.83
2022-08-30T16:01:34.469Z,49.34
2022-08-30T16:04:02.014Z,50.52
2022-08-30T16:06:34.717Z,49.41
2022-08-30T16:09:01.783Z,49.27
2022-08-30T16:11:28.614Z,50.10
2022-08-30T16:13:57.390Z,49.77
2022-08-30T16:16:25.141Z,50.56
2022-08-30T16:18:54.223Z,49.53
2022-08-30T16:21:33.318Z,49.88
2022-08-30T16:24:03.636Z,50.16
2022-08-30T16:26:32.842Z,50.04
2022-08-30T16:28:59.898Z,50.44
2022-08-30T16:31:30.297Z,51.05
2022-08-30T16:34:02.832Z,50.72
2022-08-30T16:36:33.070Z,51.32
2022-08-30T16:38:59.916Z,51.67
2022-08-30T16:41:27.085Z,52.35
2022-08-30T16:43:55.119Z,52.69
2022-08-30T16:46:27.176Z,53.33
2022-08-30T16:48:57.885Z,53.33
2022-08-30T16:51:28.411Z,53.66
2022-08-30T16:53:57.755Z,53.82
2022-08-30T16:56:26.851Z,54.06
2022-08-30T16:59:01.182Z,53.76
2022-08-30T17:01:31.771Z,54.63
2022-08-30T17:03:59.377Z,54.37
2022-08-30T17:06:26.828Z,55.17
2022-08-30T17:08:56.210Z,55.77
2022-08-30T17:11:23.803Z,56.50
2022-08-30T17:13:51.106Z,56.12
2022-08-30T17:16:22.326Z,57.42
2022-08-30T17:18:55.675Z,58.38
2022-08-30T17:21:23.285Z,58.78
2022-08-30T17:23:50.738Z,58.81
2022-08-30T17:26:18.575Z,59.18
2022-08-30T17:28:45.733Z,59.13
2022-08-30T17:31:14.904Z,59.33
2022-08-30T17:33:43.158Z,58.38
2022-08-30T17:36:12.856Z,59.39
2022-08-30T17:38:40.025Z,59.54
2022-08-30T17:41:12.017Z,60.17
2022-08-30T17:43:39.216Z,60.73
2022-08-30T17:46:18.391Z,61.49
2022-08-30T17:48:46.066Z,61.67
2022-08-30T17:51:13.225Z,62.69
2022-08-30T17:53:40.106Z,61.40
2022-08-30T17:56:10.006Z,61.57
2022-08-30T17:58:36.941Z,61.12
2022-08-30T18:01:14.358Z,62.28
2022-08-30T18:03:42.166Z,61.55
2022-08-30T18:06:13.632Z,61.13
2022-08-30T18:08:41.162Z,61.71
2022-08-30T18:11:08.662Z,61.73
2022-08-30T18:13:35.602Z,60.70
2022-08-30T18:16:04.047Z,60.53
2022-08-30T18:18:31.512Z,60.77
2022-08-30T18:21:00.015Z,62.36
2022-08-30T18:23:28.061Z,61.33
2022-08-30T18:25:59.027Z,63.40
2022-08-30T18:28:26.521Z,61.80
2022-08-30T18:30:56.724Z,62.02
2022-08-30T18:33:25.283Z,61.50
2022-08-30T18:35:53.515Z,61.06
2022-08-30T18:38:23.789Z,61.10
2022-08-30T18:40:52.666Z,61.13
2022-08-30T18:43:24.601Z,60.95
2022-08-30T18:45:57.514Z,61.51
2022-08-30T18:48:27.219Z,59.98
2022-08-30T18:50:55.445Z,60.52
2022-08-30T18:53:28.627Z,61.05
2022-08-30T18:55:57.175Z,57.80
2022-08-30T18:58:24.057Z,59.65
2022-08-30T19:00:51.069Z,58.99
2022-08-30T19:03:18.789Z,58.24
2022-08-30T19:05:46.077Z,57.28
2022-08-30T19:08:13.624Z,58.93
2022-08-30T19:10:41.185Z,60.21
2022-08-30T19:13:09.046Z,61.63
2022-08-30T19:15:36.446Z,62.18
2022-08-30T19:18:16.711Z,61.75
2022-08-30T19:20:45.974Z,60.54
2022-08-30T19:23:14.523Z,60.07
2022-08-30T19:25:41.809Z,58.94
2022-08-30T19:28:10.187Z,58.00
2022-08-30T19:30:37.648Z,58.19
2022-08-30T19:33:05.739Z,57.82
2022-08-30T19:35:33.589Z,56.54
2022-08-30T19:38:00.639Z,58.31
2022-08-30T19:40:28.331Z,57.02
2022-08-30T19:42:55.410Z,57.82
2022-08-30T19:45:23.244Z,57.55
2022-08-30T19:47:50.960Z,58.87
2022-08-30T19:50:19.037Z,56.87
2022-08-30T19:52:52.751Z,56.71
2022-08-30T19:55:23.751Z,57.23
2022-08-30T19:57:55.992Z,57.75
2022-08-30T20:00:23.373Z,57.86
2022-08-30T20:02:51.279Z,59.44
2022-08-30T20:05:19.165Z,60.39
2022-08-30T20:07:48.413Z,61.13
2022-08-30T20:10:19.813Z,61.28
2022-08-30T20:12:49.860Z,61.13
2022-08-30T20:15:18.292Z,61.58
2022-08-30T20:18:03.438Z,60.06
2022-08-30T20:20:33.473Z,61.07
2022-08-30T20:23:03.509Z,61.78
2022-08-30T20:25:30.934Z,62.13
2022-08-30T20:27:59.331Z,61.79
2022-08-30T20:30:26.157Z,62.37
2022-08-30T20:32:54.636Z,61.49
2022-08-30T20:35:23.753Z,60.36
2022-08-30T20:37:50.967Z,59.42
2022-08-30T20:40:18.918Z,60.32
2022-08-30T20:42:46.627Z,59.87
2022-08-30T20:45:15.978Z,61.00
2022-08-30T20:47:43.443Z,61.77
2022-08-30T20:50:14.609Z,62.27
2022-08-30T20:52:42.258Z,63.86
2022-08-30T20:55:11.221Z,64.37
2022-08-30T20:57:39.176Z,64.87
2022-08-30T21:00:11.494Z,64.70
2022-08-30T21:02:46.258Z,65.09
2022-08-30T21:05:15.466Z,64.97
2022-08-30T21:07:45.811Z,64.25
2022-08-30T21:10:13.716Z,65.22
2022-08-30T21:12:40.678Z,65.68
2022-08-30T21:15:33.840Z,65.70
2022-08-30T21:17:55.542Z,66.90
2022-08-30T21:20:22.542Z,66.08
2022-08-30T21:22:49.538Z,66.08
2022-08-30T21:25:16.358Z,66.21
2022-08-30T21:27:43.954Z,65.80
2022-08-30T21:30:12.900Z,66.63
2022-08-30T21:32:39.965Z,66.17
2022-08-30T21:35:26.844Z,66.10
2022-08-30T21:37:54.078Z,66.42
2022-08-30T21:40:21.117Z,69.24
2022-08-30T21:42:47.964Z,66.99
2022-08-30T21:45:15.401Z,67.31
2022-08-30T21:47:42.378Z,67.76
2022-08-30T21:50:09.575Z,67.96
2022-08-30T21:52:36.406Z,71.96
2022-08-30T21:55:04.513Z,75.76
2022-08-30T21:57:32.429Z,74.08
2022-08-30T21:59:59.265Z,73.53
2022-08-30T22:02:26.445Z,76.91
2022-08-30T22:04:53.391Z,77.11
2022-08-30T22:07:20.227Z,74.02
2022-08-30T22:09:47.106Z,71.98
2022-08-30T22:12:14.059Z,72.40
2022-08-30T22:14:41.039Z,72.37
2022-08-30T22:17:07.945Z,72.31
2022-08-30T22:19:34.805Z,72.22
2022-08-30T22:22:02.010Z,73.08
2022-08-30T22:24:32.506Z,74.04
2022-08-30T22:27:03.387Z,73.58
2022-08-30T22:29:30.433Z,73.52
2022-08-30T22:31:57.329Z,73.77
2022-08-30T22:34:24.587Z,74.71
2022-08-30T22:36:51.574Z,74.64
2022-08-30T22:39:18.516Z,78.10
2022-08-30T22:41:47.218Z,77.81
2022-08-30T22:44:14.071Z,74.80
2022-08-30T22:46:40.910Z,74.41
2022-08-30T22:49:09.803Z,75.02
2022-08-30T22:51:38.038Z,74.44
2022-08-30T22:54:07.489Z,74.75
2022-08-30T22:56:36.728Z,75.08
2022-08-30T22:59:04.293Z,75.96
2022-08-30T23:01:43.062Z,76.38
2022-08-30T23:04:11.280Z,78.40
2022-08-30T23:06:38.233Z,77.91
2022-08-30T23:09:06.690Z,79.28
2022-08-30T23:11:34.565Z,80.20
2022-08-30T23:14:03.505Z,79.65
2022-08-30T23:16:30.655Z,80.48
2022-08-30T23:18:57.610Z,79.57
2022-08-30T23:21:28.794Z,80.06
2022-08-30T23:24:15.312Z,79.29
2022-08-30T23:27:03.374Z,78.59
2022-08-30T23:29:50.129Z,78.44
2022-08-30T23:32:36.247Z,77.71
2022-08-30T23:35:29.445Z,76.73
2022-08-30T23:38:21.025Z,76.93
2022-08-30T23:41:06.798Z,75.98
2022-08-30T23:43:52.029Z,76.46
2022-08-30T23:46:39.508Z,76.74
2022-08-30T23:49:25.032Z,75.42
2022-08-30T23:52:10.513Z,78.91
2022-08-30T23:54:57.510Z,76.74
2022-08-30T23:57:44.888Z,76.58
